createdAt,value
2024-02-13T00:00:29.109Z,65.25
2024-02-13T00:01:29.108Z,67.52
2024-02-13T00:02:29.172Z,66.73
2024-02-13T00:03:29.227Z,67.79
2024-02-13T00:04:29.291Z,65.76
2024-02-13T00:05:29.379Z,68.19
2024-02-13T00:06:29.430Z,65.02
2024-02-13T00:07:29.515Z,67.85
2024-02-13T00:08:40.404Z,65.36
2024-02-13T00:09:30.618Z,65.56
2024-02-13T00:10:29.557Z,65.91
2024-02-13T00:11:29.597Z,65.80
2024-02-13T00:12:29.566Z,66.69
2024-02-13T00:13:29.550Z,69.72
2024-02-13T00:14:29.607Z,67.96
2024-02-13T00:15:29.551Z,69.60
2024-02-13T00:16:29.592Z,65.67
2024-02-13T00:17:29.706Z,67.26
2024-02-13T00:18:29.748Z,69.32
2024-02-13T00:19:29.817Z,69.41
2024-02-13T00:20:29.940Z,71.84
2024-02-13T00:21:29.905Z,66.55
2024-02-13T00:22:29.969Z,67.05
2024-02-13T00:23:30.122Z,69.49
2024-02-13T00:24:30.103Z,68.29
2024-02-13T00:25:30.164Z,66.13
2024-02-13T00:26:30.392Z,66.66
2024-02-13T00:27:30.315Z,70.46
2024-02-13T00:28:30.384Z,66.58
2024-02-13T00:29:30.483Z,68.08
2024-02-13T00:30:32.590Z,64.65
2024-02-13T00:31:30.512Z,69.10
2024-02-13T00:32:30.601Z,65.68
2024-02-13T00:33:30.530Z,69.63
2024-02-13T00:34:30.537Z,67.97
2024-02-13T00:35:30.538Z,69.17
2024-02-13T00:36:30.498Z,68.89
2024-02-13T00:37:30.520Z,66.59
2024-02-13T00:38:30.534Z,64.99
2024-02-13T00:39:30.506Z,67.56
2024-02-13T00:40:30.522Z,66.25
2024-02-13T00:41:30.562Z,67.97
2024-02-13T00:42:30.516Z,64.98
2024-02-13T00:43:30.523Z,66.28
2024-02-13T00:44:30.644Z,66.46
2024-02-13T00:45:30.534Z,67.79
2024-02-13T00:46:30.534Z,66.59
2024-02-13T00:47:30.628Z,69.46
2024-02-13T00:48:30.560Z,67.99
2024-02-13T00:49:30.529Z,68.36
2024-02-13T00:50:30.555Z,65.14
2024-02-13T00:51:30.520Z,65.67
2024-02-13T00:52:30.520Z,68.03
2024-02-13T00:53:30.576Z,64.86
2024-02-13T00:54:30.539Z,67.14
2024-02-13T00:55:30.522Z,67.10
2024-02-13T00:56:30.657Z,66.69
2024-02-13T00:57:30.558Z,64.51
2024-02-13T00:58:30.542Z,64.01
2024-02-13T00:59:30.612Z,65.24
2024-02-13T01:00:30.564Z,66.67
2024-02-13T01:01:30.568Z,63.68
2024-02-13T01:02:30.638Z,66.38
2024-02-13T01:03:30.772Z,67.89
2024-02-13T01:04:30.736Z,64.30
2024-02-13T01:05:30.788Z,66.65
2024-02-13T01:06:30.935Z,63.81
2024-02-13T01:07:30.908Z,65.42
2024-02-13T01:08:30.914Z,65.36
2024-02-13T01:09:30.981Z,67.93
2024-02-13T01:10:30.997Z,66.46
2024-02-13T01:11:31.138Z,67.94
2024-02-13T01:12:31.114Z,67.10
2024-02-13T01:13:31.167Z,68.57
2024-02-13T01:14:31.245Z,65.47
2024-02-13T01:15:31.271Z,66.95
2024-02-13T01:16:31.317Z,68.43
2024-02-13T01:17:31.472Z,66.68
2024-02-13T01:18:31.504Z,66.11
2024-02-13T01:19:31.549Z,63.44
2024-02-13T01:20:31.545Z,65.96
2024-02-13T01:21:31.561Z,66.54
2024-02-13T01:22:31.630Z,65.56
2024-02-13T01:23:31.707Z,65.39
2024-02-13T01:24:31.704Z,65.63
2024-02-13T01:25:31.773Z,64.74
2024-02-13T01:26:31.831Z,65.42
2024-02-13T01:27:31.840Z,64.28
2024-02-13T01:28:31.883Z,67.50
2024-02-13T01:29:31.987Z,63.76
2024-02-13T01:30:31.954Z,63.86
2024-02-13T01:31:31.983Z,68.17
2024-02-13T01:32:32.087Z,65.61
2024-02-13T01:33:32.202Z,64.98
2024-02-13T01:34:32.216Z,64.97
2024-02-13T01:35:32.167Z,63.78
2024-02-13T01:36:32.162Z,64.13
2024-02-13T01:37:32.310Z,65.69
2024-02-13T01:38:32.260Z,63.88
2024-02-13T01:39:32.277Z,66.46
2024-02-13T01:40:32.308Z,66.84
2024-02-13T01:41:32.364Z,64.73
2024-02-13T01:42:32.385Z,63.05
2024-02-13T01:43:32.432Z,67.52
2024-02-13T01:44:32.486Z,68.08
2024-02-13T01:45:32.494Z,67.96
2024-02-13T01:46:32.503Z,64.16
2024-02-13T01:47:32.558Z,66.17
2024-02-13T01:48:32.636Z,66.87
2024-02-13T01:49:32.679Z,65.49
2024-02-13T01:50:32.638Z,63.60
2024-02-13T01:51:32.662Z,64.91
2024-02-13T01:52:32.673Z,66.54
2024-02-13T01:53:32.752Z,66.43
2024-02-13T01:54:32.733Z,64.43
2024-02-13T01:55:32.737Z,65.69
2024-02-13T01:56:32.840Z,65.97
2024-02-13T01:57:32.789Z,63.25
2024-02-13T01:58:32.808Z,62.65
2024-02-13T01:59:32.877Z,65.24
2024-02-13T02:00:32.840Z,62.79
2024-02-13T02:01:32.839Z,66.15
2024-02-13T02:02:32.882Z,64.71
2024-02-13T02:03:32.918Z,64.49
2024-02-13T02:04:32.878Z,65.88
2024-02-13T02:05:32.963Z,65.99
2024-02-13T02:06:32.913Z,63.53
2024-02-13T02:07:32.914Z,66.34
2024-02-13T02:08:32.958Z,63.87
2024-02-13T02:09:32.922Z,65.47
2024-02-13T02:10:32.932Z,62.77
2024-02-13T02:11:32.964Z,64.44
2024-02-13T02:12:32.929Z,61.52
2024-02-13T02:13:32.946Z,64.51
2024-02-13T02:14:32.980Z,64.26
2024-02-13T02:15:32.962Z,62.69
2024-02-13T02:16:32.983Z,64.61
2024-02-13T02:17:33.155Z,64.85
2024-02-13T02:18:33.180Z,65.29
2024-02-13T02:19:33.087Z,65.36
2024-02-13T02:20:33.016Z,66.37
2024-02-13T02:21:33.028Z,66.44
2024-02-13T02:22:33.028Z,64.48
2024-02-13T02:23:33.059Z,64.72
2024-02-13T02:24:33.072Z,63.65
2024-02-13T02:25:33.106Z,64.19
2024-02-13T02:26:33.176Z,64.79
2024-02-13T02:27:33.114Z,62.79
2024-02-13T02:28:33.137Z,65.45
2024-02-13T02:29:33.181Z,62.64
2024-02-13T02:30:33.172Z,64.77
2024-02-13T02:31:33.159Z,64.17
2024-02-13T02:32:33.237Z,64.68
2024-02-13T02:33:33.247Z,66.39
2024-02-13T02:34:33.200Z,62.48
2024-02-13T02:35:33.218Z,63.82
2024-02-13T02:36:33.202Z,64.21
2024-02-13T02:37:33.201Z,64.17
2024-02-13T02:38:33.242Z,64.53
2024-02-13T02:39:33.244Z,61.29
2024-02-13T02:40:33.252Z,64.40
2024-02-13T02:41:33.282Z,65.10
2024-02-13T02:42:33.283Z,61.91
2024-02-13T02:43:33.334Z,64.36
2024-02-13T02:44:33.318Z,62.24
2024-02-13T02:45:33.317Z,61.49
2024-02-13T02:46:33.304Z,62.91
2024-02-13T02:47:33.354Z,65.23
2024-02-13T02:48:33.431Z,64.11
2024-02-13T02:49:33.362Z,62.99
2024-02-13T02:50:33.345Z,63.93
2024-02-13T02:51:33.339Z,63.96
2024-02-13T02:52:33.354Z,65.07
2024-02-13T02:53:33.426Z,64.14
2024-02-13T02:54:33.390Z,62.82
2024-02-13T02:55:33.403Z,63.55
2024-02-13T02:56:33.436Z,64.31
2024-02-13T02:57:33.418Z,63.82
2024-02-13T02:58:33.522Z,62.20
2024-02-13T02:59:33.497Z,63.40
2024-02-13T03:00:33.475Z,63.23
2024-02-13T03:01:33.450Z,64.15
2024-02-13T03:02:33.483Z,65.05
2024-02-13T03:03:33.514Z,63.33
2024-02-13T03:04:33.522Z,63.51
2024-02-13T03:05:33.557Z,63.92
2024-02-13T03:06:33.590Z,62.26
2024-02-13T03:07:33.501Z,62.34
2024-02-13T03:08:33.535Z,60.99
2024-02-13T03:09:33.521Z,62.29
2024-02-13T03:10:33.512Z,63.95
2024-02-13T03:11:33.575Z,63.41
2024-02-13T03:12:33.525Z,63.98
2024-02-13T03:13:33.532Z,63.45
2024-02-13T03:14:33.582Z,61.32
2024-02-13T03:15:33.537Z,63.13
2024-02-13T03:16:33.559Z,64.36
2024-02-13T03:17:33.701Z,59.77
2024-02-13T03:18:33.718Z,62.63
2024-02-13T03:19:33.618Z,61.77
2024-02-13T03:20:33.605Z,63.06
2024-02-13T03:21:33.582Z,61.93
2024-02-13T03:22:33.589Z,63.23
2024-02-13T03:23:33.628Z,61.69
2024-02-13T03:24:33.617Z,64.47
2024-02-13T03:25:33.611Z,63.79
2024-02-13T03:26:33.684Z,61.43
2024-02-13T03:27:33.617Z,61.32
2024-02-13T03:28:33.632Z,63.36
2024-02-13T03:29:33.733Z,64.28
2024-02-13T03:30:33.660Z,63.75
2024-02-13T03:31:33.635Z,62.59
2024-02-13T03:32:33.761Z,62.32
2024-02-13T03:33:33.766Z,62.27
2024-02-13T03:34:33.844Z,62.90
2024-02-13T03:35:33.742Z,62.54
2024-02-13T03:36:33.693Z,63.34
2024-02-13T03:37:33.709Z,62.00
2024-02-13T03:38:33.705Z,61.60
2024-02-13T03:39:33.721Z,62.11
2024-02-13T03:40:33.710Z,61.84
2024-02-13T03:41:33.770Z,60.66
2024-02-13T03:42:33.732Z,63.41
2024-02-13T03:43:33.734Z,60.71
2024-02-13T03:44:33.853Z,61.96
2024-02-13T03:45:33.754Z,63.79
2024-02-13T03:46:33.765Z,62.42
2024-02-13T03:47:33.823Z,63.31
2024-02-13T03:48:33.889Z,62.30
2024-02-13T03:49:33.878Z,60.42
2024-02-13T03:50:34.004Z,62.13
2024-02-13T03:51:33.800Z,63.32
2024-02-13T03:52:33.814Z,61.78
2024-02-13T03:53:33.846Z,62.81
2024-02-13T03:54:33.846Z,62.51
2024-02-13T03:55:33.860Z,61.12
2024-02-13T03:56:33.943Z,60.74
2024-02-13T03:57:33.875Z,59.62
2024-02-13T03:58:33.900Z,61.79
2024-02-13T03:59:33.961Z,61.97
2024-02-13T04:00:34.028Z,60.75
2024-02-13T04:01:33.908Z,61.52
2024-02-13T04:02:33.974Z,62.22
2024-02-13T04:03:33.983Z,62.70
2024-02-13T04:04:33.985Z,61.82
2024-02-13T04:05:33.998Z,62.90
2024-02-13T04:06:33.998Z,61.90
2024-02-13T04:07:33.977Z,61.19
2024-02-13T04:08:34.093Z,62.23
2024-02-13T04:09:33.990Z,60.57
2024-02-13T04:10:34.007Z,62.66
2024-02-13T04:11:34.057Z,62.25
2024-02-13T04:12:34.035Z,60.08
2024-02-13T04:13:34.061Z,62.21
2024-02-13T04:14:34.113Z,60.60
2024-02-13T04:15:34.066Z,61.39
2024-02-13T04:16:34.080Z,60.52
2024-02-13T04:17:34.156Z,62.20
2024-02-13T04:18:34.193Z,59.94
2024-02-13T04:19:34.160Z,60.13
2024-02-13T04:20:34.196Z,58.67
2024-02-13T04:21:34.117Z,59.88
2024-02-13T04:22:34.139Z,59.42
2024-02-13T04:23:34.179Z,59.21
2024-02-13T04:24:34.155Z,60.66
2024-02-13T04:25:34.175Z,59.32
2024-02-13T04:26:36.865Z,58.72
2024-02-13T04:27:34.186Z,60.02
2024-02-13T04:28:34.158Z,61.15
2024-02-13T04:29:34.181Z,59.46
2024-02-13T04:30:34.167Z,60.16
2024-02-13T04:31:41.513Z,50.00
2024-02-13T04:32:41.672Z,50.00
2024-02-13T04:33:41.621Z,50.00
2024-02-13T04:34:41.575Z,50.00
2024-02-13T04:35:41.568Z,50.00
2024-02-13T04:36:41.524Z,51.01
2024-02-13T04:37:41.531Z,50.00
2024-02-13T04:38:41.534Z,52.57
2024-02-13T04:39:41.533Z,52.64
2024-02-13T04:40:41.534Z,52.10
2024-02-13T04:41:41.551Z,52.94
2024-02-13T04:42:41.531Z,52.14
2024-02-13T04:43:41.581Z,52.76
2024-02-13T04:44:41.623Z,53.61
2024-02-13T04:45:41.532Z,53.36
2024-02-13T04:46:41.520Z,55.44
2024-02-13T04:47:41.598Z,54.15
2024-02-13T04:48:41.621Z,53.77
2024-02-13T04:49:41.545Z,52.12
2024-02-13T04:50:41.555Z,51.59
2024-02-13T04:51:41.528Z,53.49
2024-02-13T04:52:41.523Z,50.01
2024-02-13T04:53:41.557Z,53.72
2024-02-13T04:54:41.538Z,53.65
2024-02-13T04:55:41.529Z,53.69
2024-02-13T04:56:41.598Z,51.02
2024-02-13T04:57:41.539Z,53.27
2024-02-13T04:58:41.537Z,55.11
2024-02-13T04:59:41.574Z,53.97
2024-02-13T05:00:41.546Z,53.26
2024-02-13T05:01:41.566Z,52.77
2024-02-13T05:02:41.546Z,53.43
2024-02-13T05:03:41.541Z,54.32
2024-02-13T05:04:41.555Z,54.56
2024-02-13T05:05:41.649Z,54.03
2024-02-13T05:06:41.681Z,53.58
2024-02-13T05:07:41.550Z,53.02
2024-02-13T05:08:41.580Z,54.33
2024-02-13T05:09:41.591Z,51.79
2024-02-13T05:10:41.629Z,52.57
2024-02-13T05:11:41.687Z,53.99
2024-02-13T05:12:41.707Z,56.44
2024-02-13T05:13:41.751Z,53.10
2024-02-13T05:14:41.790Z,51.97
2024-02-13T05:15:41.797Z,56.18
2024-02-13T05:16:41.820Z,52.94
2024-02-13T05:17:41.968Z,53.58
2024-02-13T05:18:42.018Z,53.19
2024-02-13T05:19:41.893Z,53.30
2024-02-13T05:20:41.968Z,53.90
2024-02-13T05:21:41.957Z,53.02
2024-02-13T05:22:41.994Z,54.90
2024-02-13T05:23:42.103Z,54.44
2024-02-13T05:24:42.020Z,53.80
2024-02-13T05:25:42.051Z,53.53
2024-02-13T05:26:42.198Z,53.73
2024-02-13T05:27:42.105Z,53.15
2024-02-13T05:28:42.138Z,54.68
2024-02-13T05:29:42.266Z,53.54
2024-02-13T05:30:42.201Z,54.61
2024-02-13T05:31:42.232Z,52.96
2024-02-13T05:32:42.302Z,53.09
2024-02-13T05:33:42.415Z,53.68
2024-02-13T05:34:42.324Z,53.17
2024-02-13T05:35:42.326Z,54.95
2024-02-13T05:36:42.356Z,52.40
2024-02-13T05:37:42.361Z,53.04
2024-02-13T05:38:42.459Z,52.55
2024-02-13T05:39:42.395Z,53.61
2024-02-13T05:40:42.449Z,52.33
2024-02-13T05:41:42.430Z,55.36
2024-02-13T05:42:42.459Z,54.09
2024-02-13T05:43:42.523Z,53.24
2024-02-13T05:44:42.536Z,54.13
2024-02-13T05:45:42.511Z,52.95
2024-02-13T05:46:42.526Z,53.34
2024-02-13T05:47:42.596Z,54.23
2024-02-13T05:48:42.713Z,55.47
2024-02-13T05:49:42.677Z,52.70
2024-02-13T05:50:42.670Z,51.64
2024-02-13T05:51:42.642Z,54.29
2024-02-13T05:52:42.680Z,54.47
2024-02-13T05:53:42.933Z,54.02
2024-02-13T05:54:43.944Z,54.67
2024-02-13T05:55:42.754Z,55.39
2024-02-13T05:56:42.765Z,55.33
2024-02-13T05:57:42.795Z,54.54
2024-02-13T05:58:42.814Z,54.37
2024-02-13T05:59:42.857Z,55.49
2024-02-13T06:00:42.930Z,52.96
2024-02-13T06:01:42.943Z,55.33
2024-02-13T06:02:42.962Z,56.02
2024-02-13T06:03:43.092Z,54.62
2024-02-13T06:04:42.981Z,54.92
2024-02-13T06:05:43.083Z,53.29
2024-02-13T06:06:43.172Z,56.04
2024-02-13T06:07:43.066Z,55.95
2024-02-13T06:08:43.175Z,54.70
2024-02-13T06:09:43.157Z,57.24
2024-02-13T06:10:43.221Z,56.02
2024-02-13T06:11:43.266Z,55.69
2024-02-13T06:12:43.244Z,53.88
2024-02-13T06:13:43.319Z,55.74
2024-02-13T06:14:43.325Z,53.63
2024-02-13T06:15:43.351Z,54.85
2024-02-13T06:16:43.392Z,52.60
2024-02-13T06:17:43.491Z,57.02
2024-02-13T06:18:43.537Z,54.18
2024-02-13T06:19:43.514Z,54.12
2024-02-13T06:20:43.580Z,57.81
2024-02-13T06:21:43.585Z,56.28
2024-02-13T06:22:43.614Z,54.96
2024-02-13T06:23:43.735Z,53.62
2024-02-13T06:24:43.694Z,55.37
2024-02-13T06:25:43.723Z,54.50
2024-02-13T06:26:43.793Z,54.93
2024-02-13T06:27:43.801Z,55.12
2024-02-13T06:28:43.852Z,55.81
2024-02-13T06:29:43.937Z,54.41
2024-02-13T06:30:43.934Z,55.11
2024-02-13T06:31:43.977Z,54.50
2024-02-13T06:32:44.118Z,52.60
2024-02-13T06:33:44.157Z,56.35
2024-02-13T06:34:44.093Z,56.70
2024-02-13T06:35:44.176Z,53.04
2024-02-13T06:36:44.153Z,54.21
2024-02-13T06:37:44.184Z,54.71
2024-02-13T06:38:44.249Z,55.52
2024-02-13T06:39:44.243Z,54.97
2024-02-13T06:40:44.303Z,54.32
2024-02-13T06:41:44.337Z,56.41
2024-02-13T06:42:44.339Z,55.14
2024-02-13T06:43:44.389Z,54.99
2024-02-13T06:44:44.451Z,55.18
2024-02-13T06:45:44.451Z,53.73
2024-02-13T06:46:44.499Z,55.67
2024-02-13T06:47:44.604Z,53.24
2024-02-13T06:48:44.661Z,54.53
2024-02-13T06:49:44.692Z,53.96
2024-02-13T06:50:44.715Z,53.51
2024-02-13T06:51:44.683Z,54.87
2024-02-13T06:52:44.793Z,55.38
2024-02-13T06:53:44.854Z,52.13
2024-02-13T06:54:46.394Z,54.83
2024-02-13T06:55:44.829Z,52.11
2024-02-13T06:56:44.873Z,54.81
2024-02-13T06:57:44.900Z,54.18
2024-02-13T06:58:44.934Z,54.94
2024-02-13T06:59:45.052Z,54.22
2024-02-13T07:00:45.038Z,52.21
2024-02-13T07:01:45.046Z,55.33
2024-02-13T07:02:45.193Z,53.94
2024-02-13T07:03:45.193Z,54.71
2024-02-13T07:04:45.191Z,54.16
2024-02-13T07:05:45.320Z,54.55
2024-02-13T07:06:55.402Z,52.55
2024-02-13T07:07:48.227Z,52.72
2024-02-13T07:08:45.380Z,52.69
2024-02-13T07:09:45.370Z,53.05
2024-02-13T07:10:45.256Z,53.88
2024-02-13T07:11:45.395Z,53.10
2024-02-13T07:12:45.728Z,51.95
2024-02-13T07:13:45.246Z,54.32
2024-02-13T07:14:45.326Z,54.74
2024-02-13T07:15:45.355Z,53.05
2024-02-13T07:16:45.266Z,55.27
2024-02-13T07:17:53.395Z,52.98
2024-02-13T07:18:46.392Z,53.12
2024-02-13T07:19:45.320Z,53.17
2024-02-13T07:20:45.332Z,53.92
2024-02-13T07:21:45.270Z,54.88
2024-02-13T07:22:45.286Z,55.18
2024-02-13T07:23:45.288Z,55.75
2024-02-13T07:24:45.267Z,56.89
2024-02-13T07:25:45.278Z,54.10
2024-02-13T07:26:45.312Z,55.42
2024-02-13T07:27:45.274Z,55.04
2024-02-13T07:28:45.285Z,54.75
2024-02-13T07:29:45.327Z,54.29
2024-02-13T07:30:45.307Z,53.29
2024-02-13T07:31:45.285Z,52.89
2024-02-13T07:32:45.331Z,54.15
2024-02-13T07:33:45.486Z,55.13
2024-02-13T07:34:45.325Z,53.72
2024-02-13T07:35:45.311Z,54.43
2024-02-13T07:36:45.352Z,54.50
2024-02-13T07:37:45.297Z,54.28
2024-02-13T07:38:45.345Z,54.60
2024-02-13T07:39:45.306Z,54.89
2024-02-13T07:40:45.310Z,53.44
2024-02-13T07:41:45.328Z,53.49
2024-02-13T07:42:45.305Z,54.65
2024-02-13T07:43:45.306Z,55.71
2024-02-13T07:44:45.333Z,54.40
2024-02-13T07:45:45.335Z,54.33
2024-02-13T07:46:45.350Z,52.54
2024-02-13T07:47:45.449Z,52.51
2024-02-13T07:48:45.469Z,55.80
2024-02-13T07:49:45.437Z,54.22
2024-02-13T07:50:45.442Z,52.92
2024-02-13T07:51:45.394Z,55.46
2024-02-13T07:52:45.420Z,53.60
2024-02-13T07:53:45.446Z,55.30
2024-02-13T07:54:45.455Z,55.42
2024-02-13T07:55:45.457Z,53.00
2024-02-13T07:56:45.472Z,52.15
2024-02-13T07:57:45.471Z,53.81
2024-02-13T07:58:45.473Z,55.32
2024-02-13T07:59:45.864Z,56.16
2024-02-13T08:00:45.530Z,53.41
2024-02-13T08:01:45.518Z,51.56
2024-02-13T08:02:45.519Z,55.01
2024-02-13T08:03:45.543Z,53.76
2024-02-13T08:04:45.736Z,52.75
2024-02-13T08:05:45.609Z,54.93
2024-02-13T08:06:45.624Z,53.12
2024-02-13T08:07:45.571Z,51.41
2024-02-13T08:08:45.608Z,52.63
2024-02-13T08:09:45.588Z,53.22
2024-02-13T08:10:45.609Z,51.85
2024-02-13T08:11:45.616Z,52.34
2024-02-13T08:12:45.604Z,54.19
2024-02-13T08:13:45.612Z,51.95
2024-02-13T08:14:45.637Z,52.97
2024-02-13T08:15:45.629Z,50.07
2024-02-13T08:16:45.626Z,51.31
2024-02-13T08:17:45.765Z,52.36
2024-02-13T08:18:45.717Z,51.06
2024-02-13T08:19:45.699Z,50.00
2024-02-13T08:20:45.725Z,54.98
2024-02-13T08:21:45.678Z,55.21
2024-02-13T08:22:45.680Z,56.29
2024-02-13T08:23:45.757Z,53.80
2024-02-13T08:24:45.769Z,54.69
2024-02-13T08:25:45.787Z,53.65
2024-02-13T08:26:45.834Z,54.49
2024-02-13T08:27:45.907Z,53.45
2024-02-13T08:28:45.906Z,53.48
2024-02-13T08:29:46.024Z,53.91
2024-02-13T08:30:46.046Z,53.25
2024-02-13T08:31:46.102Z,53.91
2024-02-13T08:32:46.346Z,52.20
2024-02-13T08:33:46.537Z,53.04
2024-02-13T08:34:46.480Z,51.40
2024-02-13T08:35:46.519Z,55.81
2024-02-13T08:36:46.486Z,50.00
2024-02-13T08:37:46.510Z,50.00
2024-02-13T08:38:46.595Z,51.38
2024-02-13T08:39:46.616Z,54.54
2024-02-13T08:40:46.687Z,68.90
2024-02-13T08:41:46.734Z,73.95
2024-02-13T08:42:46.776Z,78.68
2024-02-13T08:43:46.858Z,82.66
2024-02-13T08:44:46.938Z,82.05
2024-02-13T08:45:46.953Z,81.36
2024-02-13T08:46:47.016Z,79.90
2024-02-13T08:47:47.174Z,79.33
2024-02-13T08:48:47.374Z,82.81
2024-02-13T08:49:47.416Z,78.37
2024-02-13T08:50:47.409Z,78.12
2024-02-13T08:51:47.453Z,76.73
2024-02-13T08:52:47.399Z,77.48
2024-02-13T08:53:47.541Z,77.49
2024-02-13T08:54:47.538Z,78.05
2024-02-13T08:55:47.604Z,76.79
2024-02-13T08:56:47.674Z,73.65
2024-02-13T08:57:47.749Z,73.71
2024-02-13T08:58:47.793Z,72.36
2024-02-13T08:59:47.910Z,73.31
2024-02-13T09:00:47.984Z,73.01
2024-02-13T09:01:47.988Z,73.42
2024-02-13T09:02:48.123Z,74.77
2024-02-13T09:03:48.118Z,76.03
2024-02-13T09:04:48.274Z,73.35
2024-02-13T09:05:48.319Z,72.88
2024-02-13T09:06:48.410Z,72.41
2024-02-13T09:07:48.404Z,73.01
2024-02-13T09:08:48.546Z,71.74
2024-02-13T09:09:48.535Z,69.34
2024-02-13T09:10:48.581Z,69.25
2024-02-13T09:11:48.662Z,67.85
2024-02-13T09:12:48.783Z,70.72
2024-02-13T09:13:48.759Z,69.63
2024-02-13T09:14:49.283Z,69.41
2024-02-13T09:15:48.872Z,72.13
2024-02-13T09:16:48.912Z,70.13
2024-02-13T09:17:49.040Z,70.20
2024-02-13T09:18:49.148Z,67.95
2024-02-13T09:19:49.057Z,69.66
2024-02-13T09:20:49.138Z,68.43
2024-02-13T09:21:49.109Z,66.95
2024-02-13T09:22:49.128Z,59.09
2024-02-13T09:23:49.169Z,51.14
2024-02-13T09:24:49.206Z,55.68
2024-02-13T09:25:49.251Z,63.95
2024-02-13T09:26:49.313Z,77.28
2024-02-13T09:27:49.496Z,81.37
2024-02-13T09:28:49.337Z,87.12
2024-02-13T09:29:49.476Z,91.07
2024-02-13T09:30:49.469Z,100.23
2024-02-13T09:31:49.532Z,109.87
2024-02-13T09:32:49.842Z,108.31
2024-02-13T09:33:49.794Z,112.34
2024-02-13T09:34:49.669Z,114.11
2024-02-13T09:35:49.703Z,120.38
2024-02-13T09:36:49.666Z,123.91
2024-02-13T09:37:49.757Z,126.52
2024-02-13T09:38:49.849Z,131.50
2024-02-13T09:39:49.780Z,134.26
2024-02-13T09:40:50.078Z,139.29
2024-02-13T09:41:49.896Z,139.89
2024-02-13T09:42:49.943Z,142.07
2024-02-13T09:43:51.720Z,142.73
2024-02-13T09:44:50.160Z,145.20
2024-02-13T09:45:50.144Z,145.93
2024-02-13T09:46:50.114Z,146.04
2024-02-13T09:47:50.287Z,148.61
2024-02-13T09:48:50.842Z,148.91
2024-02-13T09:49:50.297Z,149.58
2024-02-13T09:50:50.343Z,148.61
2024-02-13T09:51:50.336Z,149.47
2024-02-13T09:52:50.365Z,149.51
2024-02-13T09:53:50.515Z,150.60
2024-02-13T09:54:50.482Z,148.92
2024-02-13T09:55:50.534Z,148.70
2024-02-13T09:56:50.628Z,149.62
2024-02-13T09:57:50.670Z,147.19
2024-02-13T09:58:50.681Z,148.59
2024-02-13T09:59:50.780Z,146.22
2024-02-13T10:00:50.847Z,146.33
2024-02-13T10:01:50.828Z,149.76
2024-02-13T10:02:50.971Z,147.86
2024-02-13T10:03:50.913Z,144.62
2024-02-13T10:04:50.922Z,142.62
2024-02-13T10:05:51.867Z,137.29
2024-02-13T10:06:51.051Z,134.30
2024-02-13T10:07:51.011Z,128.32
2024-02-13T10:08:51.153Z,124.73
2024-02-13T10:09:51.121Z,122.65
2024-02-13T10:10:51.124Z,121.48
2024-02-13T10:11:51.157Z,120.71
2024-02-13T10:12:51.174Z,116.00
2024-02-13T10:13:51.194Z,113.92
2024-02-13T10:14:51.292Z,110.65
2024-02-13T10:15:51.324Z,108.10
2024-02-13T10:16:51.398Z,103.77
2024-02-13T10:17:51.421Z,102.28
2024-02-13T10:18:51.563Z,101.47
2024-02-13T10:19:51.582Z,98.25
2024-02-13T10:20:51.533Z,97.35
2024-02-13T10:21:51.587Z,85.97
2024-02-13T10:22:51.709Z,83.82
2024-02-13T10:23:51.806Z,83.66
2024-02-13T10:24:51.736Z,82.31
2024-02-13T10:25:51.763Z,85.00
2024-02-13T10:26:51.797Z,84.71
2024-02-13T10:27:51.789Z,88.64
2024-02-13T10:28:51.838Z,92.64
2024-02-13T10:29:51.953Z,94.11
2024-02-13T10:30:51.965Z,99.12
2024-02-13T10:31:52.027Z,100.35
2024-02-13T10:32:52.136Z,105.45
2024-02-13T10:33:52.219Z,106.73
2024-02-13T10:34:52.191Z,108.52
2024-02-13T10:35:52.284Z,109.67
2024-02-13T10:36:52.178Z,112.59
2024-02-13T10:37:52.193Z,113.48
2024-02-13T10:38:52.310Z,114.73
2024-02-13T10:39:52.249Z,116.19
2024-02-13T10:40:52.249Z,116.73
2024-02-13T10:41:52.325Z,118.46
2024-02-13T10:42:52.305Z,117.61
2024-02-13T10:43:52.289Z,119.20
2024-02-13T10:44:52.309Z,121.70
2024-02-13T10:45:52.303Z,122.65
2024-02-13T10:46:52.322Z,119.12
2024-02-13T10:47:52.405Z,121.07
2024-02-13T10:48:52.408Z,122.97
2024-02-13T10:49:52.372Z,123.52
2024-02-13T10:50:52.379Z,125.05
2024-02-13T10:51:52.352Z,124.04
2024-02-13T10:52:52.373Z,124.92
2024-02-13T10:53:52.424Z,123.72
2024-02-13T10:54:52.370Z,125.74
2024-02-13T10:55:52.380Z,128.51
2024-02-13T10:56:52.417Z,125.12
2024-02-13T10:57:52.409Z,124.32
2024-02-13T10:58:52.384Z,125.70
2024-02-13T10:59:52.465Z,129.26
2024-02-13T11:00:52.605Z,129.47
2024-02-13T11:01:52.528Z,127.29
2024-02-13T11:02:52.628Z,129.44
2024-02-13T11:03:52.612Z,128.82
2024-02-13T11:04:52.545Z,131.20
2024-02-13T11:05:52.526Z,132.78
2024-02-13T11:06:52.544Z,134.86
2024-02-13T11:07:52.497Z,137.93
2024-02-13T11:08:52.596Z,135.24
2024-02-13T11:09:52.555Z,132.29
2024-02-13T11:10:52.601Z,129.97
2024-02-13T11:11:52.706Z,128.53
2024-02-13T11:12:52.728Z,123.97
2024-02-13T11:13:52.799Z,119.63
2024-02-13T11:14:52.883Z,118.51
2024-02-13T11:15:52.898Z,115.58
2024-02-13T11:16:52.971Z,114.75
2024-02-13T11:17:53.094Z,113.73
2024-02-13T11:18:53.152Z,109.16
2024-02-13T11:19:53.120Z,107.50
2024-02-13T11:20:53.082Z,105.11
2024-02-13T11:21:53.205Z,105.35
2024-02-13T11:22:53.045Z,108.73
2024-02-13T11:23:53.106Z,102.06
2024-02-13T11:24:53.231Z,106.58
2024-02-13T11:25:53.085Z,100.13
2024-02-13T11:26:53.200Z,99.21
2024-02-13T11:27:53.144Z,104.43
2024-02-13T11:28:53.145Z,100.46
2024-02-13T11:29:53.201Z,104.81
2024-02-13T11:30:53.195Z,105.05
2024-02-13T11:31:53.253Z,100.22
2024-02-13T11:32:53.372Z,93.99
2024-02-13T11:33:53.542Z,95.70
2024-02-13T11:34:53.435Z,95.90
2024-02-13T11:35:53.458Z,97.14
2024-02-13T11:36:53.349Z,95.04
2024-02-13T11:37:53.406Z,93.95
2024-02-13T11:38:53.551Z,92.84
2024-02-13T11:39:53.453Z,98.74
2024-02-13T11:40:53.483Z,97.20
2024-02-13T11:41:53.612Z,95.40
2024-02-13T11:42:53.568Z,88.78
2024-02-13T11:43:53.590Z,95.52
2024-02-13T11:44:53.704Z,93.42
2024-02-13T11:45:53.674Z,92.30
2024-02-13T11:46:53.696Z,96.28
2024-02-13T11:47:53.870Z,93.51
2024-02-13T11:48:53.872Z,96.33
2024-02-13T11:49:53.934Z,91.40
2024-02-13T11:50:53.910Z,87.69
2024-02-13T11:51:53.880Z,89.28
2024-02-13T11:52:53.950Z,96.03
2024-02-13T11:53:54.018Z,93.24
2024-02-13T11:54:53.989Z,96.04
2024-02-13T11:55:54.029Z,91.84
2024-02-13T11:56:54.182Z,96.51
2024-02-13T11:57:54.092Z,90.49
2024-02-13T11:58:54.142Z,90.53
2024-02-13T11:59:54.190Z,91.65
2024-02-13T12:00:54.189Z,91.62
2024-02-13T12:01:54.249Z,94.06
2024-02-13T12:02:54.244Z,91.99
2024-02-13T12:03:54.348Z,92.90
2024-02-13T12:04:54.270Z,93.36
2024-02-13T12:05:54.408Z,93.71
2024-02-13T12:06:54.330Z,93.20
2024-02-13T12:07:54.328Z,88.30
2024-02-13T12:08:54.412Z,95.41
2024-02-13T12:09:54.597Z,97.11
2024-02-13T12:10:54.401Z,94.66
2024-02-13T12:11:54.530Z,100.07
2024-02-13T12:12:54.443Z,88.03
2024-02-13T12:13:54.492Z,101.95
2024-02-13T12:14:54.603Z,91.26
2024-02-13T12:15:54.519Z,93.00
2024-02-13T12:16:54.534Z,101.34
2024-02-13T12:17:54.643Z,95.28
2024-02-13T12:18:54.721Z,97.07
2024-02-13T12:19:54.620Z,96.09
2024-02-13T12:20:54.731Z,93.63
2024-02-13T12:21:54.675Z,92.34
2024-02-13T12:22:54.716Z,96.63
2024-02-13T12:23:54.779Z,92.22
2024-02-13T12:24:54.777Z,94.12
2024-02-13T12:25:54.796Z,99.09
2024-02-13T12:26:54.841Z,94.23
2024-02-13T12:27:54.852Z,96.25
2024-02-13T12:28:54.900Z,94.29
2024-02-13T12:29:54.988Z,91.37
2024-02-13T12:30:54.924Z,92.60
2024-02-13T12:31:54.950Z,97.50
2024-02-13T12:32:55.112Z,92.33
2024-02-13T12:33:55.064Z,95.04
2024-02-13T12:34:55.121Z,92.62
2024-02-13T12:35:55.074Z,96.66
2024-02-13T12:36:55.168Z,98.86
2024-02-13T12:37:55.089Z,97.14
2024-02-13T12:38:55.130Z,91.71
2024-02-13T12:39:55.148Z,94.62
2024-02-13T12:40:55.168Z,86.99
2024-02-13T12:41:55.238Z,98.60
2024-02-13T12:42:55.231Z,97.23
2024-02-13T12:43:55.262Z,96.01
2024-02-13T12:44:55.310Z,94.90
2024-02-13T12:45:55.307Z,97.06
2024-02-13T12:46:55.378Z,91.78
2024-02-13T12:47:55.518Z,92.40
2024-02-13T12:48:55.497Z,93.72
2024-02-13T12:49:55.549Z,98.98